Time;durP1;ratioP1;P1;durP2;ratioP2;P2;SDS_P1;SDS_P2;PMS_P1;PMS_P2;Temp;Humidity;BMP_temperature;BMP_pressure;BME280_temperature;BME280_humidity;BME280_pressure;Samples;Min_cycle;Max_cycle;Signal;HPM_P1;HPM_P2
2022/12/31 00:00:13;;;;;;;1.70;1.58;;;12.60;99.90;;;;;;5005515;28;20428;-69
2022/12/31 00:02:40;;;;;;;1.65;1.55;;;12.70;99.90;;;;;;5006287;28;20516;-70
2022/12/31 00:05:10;;;;;;;1.50;1.40;;;12.70;99.90;;;;;;5005102;28;20765;-70
2022/12/31 00:07:36;;;;;;;1.80;1.50;;;12.70;99.90;;;;;;5003936;28;20430;-70
2022/12/31 00:10:04;;;;;;;1.42;1.30;;;12.70;99.90;;;;;;5005008;28;20898;-69
2022/12/31 00:12:30;;;;;;;1.50;1.30;;;12.80;99.90;;;;;;5014249;28;20437;-69
2022/12/31 00:14:57;;;;;;;1.35;1.10;;;12.80;99.90;;;;;;5014360;28;20417;-69
2022/12/31 00:17:24;;;;;;;1.15;1.00;;;12.90;99.90;;;;;;5004457;28;20476;-69
2022/12/31 00:19:51;;;;;;;1.10;1.00;;;12.90;99.90;;;;;;5005641;28;20420;-69
2022/12/31 00:22:19;;;;;;;1.10;0.70;;;13.00;99.90;;;;;;5003400;28;20457;-69
2022/12/31 00:24:45;;;;;;;0.77;0.60;;;13.10;99.90;;;;;;5005562;28;20425;-70
2022/12/31 00:27:12;;;;;;;0.77;0.60;;;13.20;99.90;;;;;;5015424;28;20447;-69
2022/12/31 00:29:39;;;;;;;1.00;0.70;;;13.30;99.90;;;;;;5023228;28;20431;-70
2022/12/31 00:32:06;;;;;;;1.10;0.70;;;13.30;99.90;;;;;;5021984;28;20427;-70
2022/12/31 00:34:33;;;;;;;0.80;0.40;;;13.40;99.90;;;;;;5016855;28;21201;-69
2022/12/31 00:36:59;;;;;;;0.90;0.50;;;13.50;99.90;;;;;;5003473;28;20412;-70
2022/12/31 00:39:27;;;;;;;1.02;0.45;;;13.50;99.90;;;;;;5004793;28;20424;-69
2022/12/31 00:41:54;;;;;;;0.70;0.40;;;13.50;99.90;;;;;;5010768;28;20427;-70
2022/12/31 00:46:52;;;;;;;0.60;0.32;;;13.60;99.90;;;;;;5035759;28;20450;-66
2022/12/31 00:49:19;;;;;;;0.60;0.40;;;13.70;99.90;;;;;;5047466;28;20807;-67
2022/12/31 00:51:46;;;;;;;0.90;0.40;;;13.80;99.60;;;;;;5033076;28;20435;-66
2022/12/31 00:54:13;;;;;;;1.20;0.40;;;13.90;99.40;;;;;;5030383;28;20419;-66
2022/12/31 00:56:41;;;;;;;1.00;0.40;;;14.00;99.20;;;;;;5032901;28;20439;-67
2022/12/31 00:59:08;;;;;;;0.60;0.30;;;14.00;99.00;;;;;;5040792;28;20421;-67
2022/12/31 01:01:36;;;;;;;1.00;0.40;;;14.00;99.00;;;;;;5047616;28;20449;-65
2022/12/31 01:04:05;;;;;;;0.60;0.30;;;14.10;99.20;;;;;;5047042;28;20414;-66
2022/12/31 01:06:32;;;;;;;1.00;0.30;;;14.10;99.10;;;;;;5046841;28;20428;-66
2022/12/31 01:08:59;;;;;;;0.60;0.30;;;14.10;99.00;;;;;;5047766;28;20440;-65
2022/12/31 01:11:28;;;;;;;1.40;0.40;;;14.20;98.60;;;;;;5040850;28;20427;-67
2022/12/31 01:13:58;;;;;;;0.60;0.30;;;14.30;98.60;;;;;;5037240;28;20434;-67
2022/12/31 01:16:26;;;;;;;1.08;0.30;;;14.30;98.30;;;;;;5047288;28;20428;-66
2022/12/31 01:18:54;;;;;;;0.75;0.35;;;14.30;98.30;;;;;;5047172;28;20424;-65
2022/12/31 01:21:22;;;;;;;0.70;0.30;;;14.40;98.30;;;;;;5046257;28;20811;-67
2022/12/31 01:23:49;;;;;;;0.50;0.30;;;14.40;98.20;;;;;;5046773;28;20417;-66
2022/12/31 01:26:17;;;;;;;0.52;0.30;;;14.50;97.80;;;;;;5042457;28;20431;-65
2022/12/31 01:28:44;;;;;;;1.00;0.30;;;14.50;97.80;;;;;;5048655;28;20436;-67
2022/12/31 01:31:14;;;;;;;1.02;0.30;;;14.60;97.80;;;;;;5045522;28;20409;-67
2022/12/31 01:33:41;;;;;;;1.10;0.30;;;14.60;97.70;;;;;;5052724;28;21284;-67
2022/12/31 01:36:11;;;;;;;0.50;0.30;;;14.60;97.70;;;;;;5053841;28;20746;-66
2022/12/31 01:38:38;;;;;;;0.60;0.30;;;14.70;97.30;;;;;;5054189;28;20864;-66
2022/12/31 01:41:05;;;;;;;0.60;0.30;;;14.70;97.30;;;;;;5053721;28;20930;-67
2022/12/31 01:43:44;;;;;;;0.60;0.30;;;14.70;97.40;;;;;;5052329;28;20775;-66
2022/12/31 01:46:18;;;;;;;0.55;0.30;;;14.70;97.40;;;;;;5038825;28;20433;-65
2022/12/31 01:48:50;;;;;;;0.90;0.30;;;14.70;97.30;;;;;;5039733;28;20445;-66
2022/12/31 01:51:17;;;;;;;0.50;0.30;;;14.80;97.30;;;;;;5052995;28;20413;-67
2022/12/31 01:53:44;;;;;;;1.00;0.30;;;14.80;97.00;;;;;;5053267;28;20420;-66
2022/12/31 01:56:11;;;;;;;0.70;0.30;;;14.80;97.00;;;;;;5053395;28;20421;-67
2022/12/31 01:58:42;;;;;;;1.30;0.30;;;14.80;97.00;;;;;;5054038;28;20428;-66
2022/12/31 02:01:11;;;;;;;1.00;0.30;;;14.80;97.70;;;;;;5048914;28;20450;-67
2022/12/31 02:03:40;;;;;;;0.50;0.30;;;14.80;97.20;;;;;;5046802;28;20427;-66
2022/12/31 02:06:11;;;;;;;0.80;0.40;;;14.80;97.30;;;;;;5049523;28;20888;-66
2022/12/31 02:08:39;;;;;;;0.70;0.30;;;14.80;97.20;;;;;;5044226;28;20415;-66
2022/12/31 02:11:25;;;;;;;0.50;0.30;;;14.80;97.40;;;;;;5033239;28;20411;-66
2022/12/31 02:13:55;;;;;;;0.60;0.30;;;14.80;97.40;;;;;;5044647;28;20406;-66
2022/12/31 02:16:30;;;;;;;0.60;0.30;;;14.70;97.40;;;;;;5053911;28;20452;-67
2022/12/31 02:19:08;;;;;;;0.50;0.30;;;14.80;97.30;;;;;;5047277;28;20409;-65
2022/12/31 02:21:53;;;;;;;0.50;0.30;;;14.80;97.20;;;;;;5052063;28;20429;-66
2022/12/31 02:25:02;;;;;;;0.77;0.40;;;14.80;97.20;;;;;;5053442;28;21024;-66
2022/12/31 02:27:45;;;;;;;1.00;0.30;;;14.90;96.90;;;;;;5043879;28;20424;-67
2022/12/31 02:30:16;;;;;;;0.60;0.30;;;15.00;96.20;;;;;;5042394;28;20789;-66
2022/12/31 02:33:03;;;;;;;0.50;0.30;;;15.10;95.90;;;;;;5032549;28;20411;-68
2022/12/31 02:35:41;;;;;;;0.50;0.30;;;15.20;95.40;;;;;;5033423;28;20415;-69
2022/12/31 02:38:14;;;;;;;0.60;0.30;;;15.20;95.20;;;;;;5031429;28;20877;-67
2022/12/31 02:40:40;;;;;;;0.60;0.30;;;15.20;94.80;;;;;;5030994;28;20415;-67
2022/12/31 02:43:07;;;;;;;0.60;0.30;;;15.30;94.60;;;;;;5039888;28;20964;-66
2022/12/31 02:45:40;;;;;;;0.60;0.30;;;15.30;94.20;;;;;;5045249;28;20421;-67
2022/12/31 02:48:36;;;;;;;0.60;0.30;;;15.40;94.00;;;;;;5050334;28;20429;-67
2022/12/31 02:51:18;;;;;;;0.60;0.30;;;15.40;94.00;;;;;;5013753;28;20419;-67
2022/12/31 02:54:10;;;;;;;1.10;0.30;;;15.40;93.80;;;;;;5029830;28;20419;-67
2022/12/31 02:56:43;;;;;;;0.80;0.30;;;15.50;93.50;;;;;;5032847;28;20437;-67
2022/12/31 03:02:18;;;;;;;0.60;0.30;;;15.60;92.80;;;;;;5058774;28;20776;-68
2022/12/31 03:04:48;;;;;;;0.70;0.30;;;15.60;92.80;;;;;;5070795;28;20407;-67
2022/12/31 03:07:19;;;;;;;0.90;0.30;;;15.60;92.70;;;;;;5072701;28;20424;-67
2022/12/31 03:09:46;;;;;;;0.90;0.50;;;15.60;92.90;;;;;;5074137;28;20408;-67
2022/12/31 03:14:57;;;;;;;0.80;0.30;;;15.60;92.90;;;;;;5036877;28;20406;-66
2022/12/31 03:17:25;;;;;;;0.60;0.30;;;15.60;92.80;;;;;;5037859;28;20419;-67
2022/12/31 03:22:40;;;;;;;0.70;0.40;;;15.60;93.00;;;;;;5053375;28;20748;-69
2022/12/31 03:27:54;;;;;;;0.60;0.40;;;15.60;93.40;;;;;;5047926;28;21018;-66
2022/12/31 03:30:22;;;;;;;0.60;0.30;;;15.60;93.40;;;;;;5058096;28;20424;-66
2022/12/31 03:32:51;;;;;;;0.60;0.30;;;15.50;93.50;;;;;;5048622;28;20455;-65
2022/12/31 03:35:20;;;;;;;0.70;0.30;;;15.60;93.60;;;;;;5049926;28;20424;-64
2022/12/31 03:37:47;;;;;;;0.50;0.30;;;15.60;93.70;;;;;;5048994;28;20449;-65
2022/12/31 03:40:14;;;;;;;0.90;0.40;;;15.50;93.70;;;;;;5050021;28;20815;-67
2022/12/31 03:42:41;;;;;;;0.60;0.30;;;15.60;93.80;;;;;;5040141;28;20435;-67
2022/12/31 03:45:10;;;;;;;0.50;0.30;;;15.60;93.50;;;;;;5050392;28;20424;-66
2022/12/31 03:47:37;;;;;;;0.80;0.30;;;15.60;93.50;;;;;;5048939;28;20455;-66
2022/12/31 03:50:07;;;;;;;0.50;0.30;;;15.60;93.50;;;;;;5045785;28;20429;-67
2022/12/31 03:52:34;;;;;;;0.80;0.30;;;15.60;93.50;;;;;;5048084;28;20414;-65
2022/12/31 03:55:01;;;;;;;0.60;0.30;;;15.60;93.40;;;;;;5049642;28;20424;-66
2022/12/31 03:57:28;;;;;;;0.60;0.30;;;15.60;94.00;;;;;;5042868;28;20462;-66
2022/12/31 03:59:55;;;;;;;0.70;0.40;;;15.50;94.30;;;;;;5047670;28;20444;-67
2022/12/31 04:02:22;;;;;;;0.60;0.30;;;15.40;94.40;;;;;;5048371;28;20833;-67
2022/12/31 04:04:48;;;;;;;0.65;0.30;;;15.40;94.30;;;;;;5050099;28;20440;-67
2022/12/31 04:07:17;;;;;;;0.60;0.30;;;15.40;93.90;;;;;;5048860;28;20413;-65
2022/12/31 04:09:44;;;;;;;1.10;0.30;;;15.50;93.70;;;;;;5049953;28;20423;-66
2022/12/31 04:12:10;;;;;;;0.73;0.30;;;15.50;94.00;;;;;;5044164;28;20920;-66
2022/12/31 04:14:37;;;;;;;0.60;0.30;;;15.50;93.90;;;;;;5044876;28;20424;-66
2022/12/31 04:17:04;;;;;;;0.70;0.30;;;15.50;93.70;;;;;;5049430;28;20421;-68
2022/12/31 04:19:30;;;;;;;0.50;0.30;;;15.50;93.90;;;;;;5048911;28;20444;-67
2022/12/31 04:21:57;;;;;;;0.60;0.30;;;15.50;93.70;;;;;;5048262;28;20436;-66
2022/12/31 04:24:26;;;;;;;0.60;0.30;;;15.50;93.60;;;;;;5048192;28;20535;-68
2022/12/31 04:26:52;;;;;;;0.93;0.40;;;15.50;93.50;;;;;;5038928;28;20657;-66
2022/12/31 04:29:19;;;;;;;0.60;0.30;;;15.60;93.50;;;;;;5048668;28;20424;-66
2022/12/31 04:31:46;;;;;;;0.60;0.30;;;15.50;93.60;;;;;;5048269;28;20420;-66
2022/12/31 04:34:12;;;;;;;0.70;0.30;;;15.50;93.30;;;;;;5046995;28;20417;-67
2022/12/31 04:36:39;;;;;;;0.60;0.30;;;15.60;93.40;;;;;;5047573;28;20428;-67
2022/12/31 04:39:06;;;;;;;0.60;0.30;;;15.60;93.10;;;;;;5048981;28;20409;-66
2022/12/31 04:41:34;;;;;;;1.80;0.40;;;15.60;93.00;;;;;;5046004;28;20445;-67
2022/12/31 04:44:01;;;;;;;0.50;0.30;;;15.70;92.80;;;;;;5039243;28;20776;-67
2022/12/31 04:46:29;;;;;;;1.30;0.30;;;15.70;92.50;;;;;;5048640;28;20417;-66
2022/12/31 04:48:56;;;;;;;0.70;0.30;;;15.70;92.30;;;;;;5044201;28;21208;-66
2022/12/31 04:51:24;;;;;;;1.00;0.40;;;15.80;92.20;;;;;;5049175;28;20425;-66
2022/12/31 04:53:51;;;;;;;0.70;0.40;;;15.80;92.00;;;;;;5048539;28;20409;-67
2022/12/31 04:56:18;;;;;;;0.68;0.30;;;15.80;91.70;;;;;;5060250;28;20444;-67
2022/12/31 04:58:47;;;;;;;1.80;0.40;;;15.90;91.70;;;;;;5047059;28;20423;-66
2022/12/31 05:01:14;;;;;;;0.70;0.40;;;15.90;91.60;;;;;;5041667;28;20423;-66
2022/12/31 05:03:41;;;;;;;0.70;0.40;;;16.00;91.20;;;;;;5041292;28;20434;-66
2022/12/31 05:06:11;;;;;;;1.50;0.40;;;16.00;91.10;;;;;;5027752;28;20418;-66
2022/12/31 05:08:38;;;;;;;1.47;0.40;;;16.10;90.90;;;;;;5027921;28;20415;-68
2022/12/31 05:11:05;;;;;;;1.10;0.40;;;16.10;90.60;;;;;;5038715;28;20432;-67
2022/12/31 05:13:32;;;;;;;1.20;0.50;;;16.10;90.50;;;;;;5041781;28;20413;-67
2022/12/31 05:16:00;;;;;;;0.60;0.40;;;16.20;90.40;;;;;;5045661;28;20478;-66
2022/12/31 05:18:27;;;;;;;0.60;0.30;;;16.20;90.30;;;;;;5041707;28;20428;-66
2022/12/31 05:20:53;;;;;;;0.90;0.50;;;16.20;90.10;;;;;;5047755;28;20425;-66
2022/12/31 05:23:20;;;;;;;0.70;0.30;;;16.20;90.00;;;;;;5047561;28;20926;-67
2022/12/31 05:25:47;;;;;;;0.93;0.40;;;16.20;89.40;;;;;;5047206;28;20437;-65
2022/12/31 05:28:15;;;;;;;1.40;0.47;;;16.30;88.90;;;;;;5037323;28;20430;-67
2022/12/31 05:30:42;;;;;;;1.10;0.40;;;16.30;88.00;;;;;;5029503;28;20418;-67
2022/12/31 05:33:11;;;;;;;1.40;0.50;;;16.40;87.30;;;;;;5033181;28;20435;-66
2022/12/31 05:35:37;;;;;;;2.10;0.50;;;16.50;87.10;;;;;;5048216;28;20445;-65
2022/12/31 05:38:04;;;;;;;1.00;0.40;;;16.50;87.60;;;;;;5048408;28;20419;-65
2022/12/31 05:40:31;;;;;;;1.70;0.40;;;16.50;86.10;;;;;;5043093;28;20441;-66
2022/12/31 05:42:58;;;;;;;1.80;0.47;;;16.60;85.70;;;;;;5054401;28;20442;-67
2022/12/31 05:45:24;;;;;;;1.20;0.60;;;16.60;85.60;;;;;;5062922;28;20938;-66
2022/12/31 05:47:51;;;;;;;1.35;0.40;;;16.70;85.60;;;;;;5062357;28;20421;-67
2022/12/31 05:50:19;;;;;;;0.85;0.50;;;16.70;85.50;;;;;;5049698;28;20436;-67
2022/12/31 05:52:46;;;;;;;1.20;0.50;;;16.70;85.30;;;;;;5047121;28;20410;-67
2022/12/31 05:55:13;;;;;;;1.80;1.20;;;16.80;84.80;;;;;;5047464;28;20646;-68
2022/12/31 05:57:40;;;;;;;1.20;0.40;;;16.80;84.60;;;;;;5039406;28;20792;-67
2022/12/31 06:00:10;;;;;;;0.98;0.50;;;16.80;85.10;;;;;;5048651;28;20417;-66
2022/12/31 06:02:37;;;;;;;0.98;0.50;;;16.80;85.50;;;;;;5046598;28;20433;-67
2022/12/31 06:05:04;;;;;;;1.70;0.50;;;16.70;85.10;;;;;;5047808;28;20447;-66
2022/12/31 06:07:32;;;;;;;0.80;0.40;;;16.70;85.80;;;;;;5043156;28;20431;-66
2022/12/31 06:09:59;;;;;;;1.25;0.40;;;16.60;85.50;;;;;;5050309;28;20441;-67
2022/12/31 06:12:26;;;;;;;1.38;0.47;;;16.60;85.50;;;;;;5050041;28;20433;-68
2022/12/31 06:14:52;;;;;;;1.50;0.50;;;16.70;85.10;;;;;;5055133;28;20432;-65
2022/12/31 06:17:21;;;;;;;2.83;0.50;;;16.70;85.20;;;;;;5059912;28;20425;-67
2022/12/31 06:19:48;;;;;;;1.00;0.50;;;16.60;85.60;;;;;;5052987;28;20420;-66
2022/12/31 06:22:15;;;;;;;1.10;0.50;;;16.60;86.10;;;;;;5049592;28;20966;-66
2022/12/31 06:24:43;;;;;;;1.00;0.50;;;16.50;87.10;;;;;;5049943;28;20440;-66
2022/12/31 06:27:10;;;;;;;1.40;0.60;;;16.50;87.30;;;;;;5044302;28;20427;-67
2022/12/31 06:29:36;;;;;;;1.50;0.50;;;16.50;87.40;;;;;;5039599;28;20415;-66
2022/12/31 06:32:03;;;;;;;1.02;0.50;;;16.50;86.90;;;;;;5048230;28;20452;-66
2022/12/31 06:34:30;;;;;;;1.33;0.57;;;16.60;86.70;;;;;;5049683;28;20417;-66
2022/12/31 06:36:58;;;;;;;1.70;0.50;;;16.60;86.90;;;;;;5049658;28;20417;-66
2022/12/31 06:39:25;;;;;;;1.50;0.60;;;16.60;86.50;;;;;;5049916;28;20433;-66
2022/12/31 06:41:53;;;;;;;1.25;0.52;;;16.60;87.20;;;;;;5042662;28;20433;-69
2022/12/31 06:44:21;;;;;;;1.10;0.57;;;16.70;85.70;;;;;;5042754;28;20985;-66
2022/12/31 06:46:48;;;;;;;2.00;0.50;;;16.80;85.50;;;;;;5050914;28;20482;-67
2022/12/31 06:49:14;;;;;;;1.70;0.70;;;16.80;86.10;;;;;;5050420;28;20416;-66
2022/12/31 06:51:44;;;;;;;1.40;0.50;;;16.70;85.50;;;;;;5050181;28;20421;-67
2022/12/31 06:54:11;;;;;;;1.30;0.60;;;16.70;86.10;;;;;;5049625;28;20413;-68
2022/12/31 06:56:39;;;;;;;1.80;0.70;;;16.70;85.90;;;;;;5047683;22;20434;-68
2022/12/31 06:59:22;;;;;;;1.05;0.50;;;16.80;86.00;;;;;;5025141;28;20430;-69
2022/12/31 07:02:00;;;;;;;1.50;0.60;;;16.80;85.80;;;;;;5029823;28;20500;-68
2022/12/31 07:04:43;;;;;;;0.70;0.40;;;16.80;85.60;;;;;;5037140;28;20530;-69
2022/12/31 07:07:20;;;;;;;1.17;0.60;;;16.80;85.60;;;;;;5004194;28;20748;-70
2022/12/31 07:09:56;;;;;;;1.90;0.60;;;16.80;85.60;;;;;;5003435;28;20524;-69
2022/12/31 07:12:36;;;;;;;1.13;0.70;;;16.90;85.50;;;;;;5003774;28;20512;-69
2022/12/31 07:15:11;;;;;;;1.98;0.70;;;16.80;85.50;;;;;;5016676;28;20411;-69
2022/12/31 07:17:47;;;;;;;1.50;0.60;;;16.90;85.20;;;;;;5004516;28;20421;-69
2022/12/31 07:20:17;;;;;;;1.15;0.50;;;16.90;84.80;;;;;;5005035;28;20448;-70
2022/12/31 07:22:44;;;;;;;1.73;0.60;;;16.90;84.70;;;;;;5011888;28;20445;-69
2022/12/31 07:25:14;;;;;;;1.10;0.55;;;17.00;84.10;;;;;;5005968;28;21003;-70
2022/12/31 07:28:02;;;;;;;0.90;0.60;;;16.90;84.40;;;;;;5004459;28;20420;-69
2022/12/31 07:30:38;;;;;;;1.80;0.60;;;17.00;84.30;;;;;;5003361;28;20439;-69
2022/12/31 07:33:46;;;;;;;1.58;0.57;;;17.00;84.20;;;;;;5001976;28;20894;-68
2022/12/31 07:36:27;;;;;;;2.00;0.60;;;16.90;84.10;;;;;;4992581;28;21060;-68
2022/12/31 07:39:00;;;;;;;1.50;0.70;;;16.90;84.20;;;;;;5004950;28;20455;-70
2022/12/31 07:41:42;;;;;;;1.30;0.70;;;16.90;84.10;;;;;;5002749;28;20760;-68
2022/12/31 07:44:22;;;;;;;1.10;0.50;;;16.90;84.70;;;;;;5004597;28;21021;-68
2022/12/31 07:46:55;;;;;;;0.95;0.60;;;16.80;84.50;;;;;;5006734;28;20523;-69
2022/12/31 07:49:23;;;;;;;1.60;0.60;;;16.80;84.40;;;;;;5005031;28;20428;-69
2022/12/31 07:51:51;;;;;;;1.48;0.50;;;16.80;84.50;;;;;;4998790;28;20439;-70
2022/12/31 07:54:18;;;;;;;1.60;0.80;;;16.80;84.00;;;;;;5004241;28;20915;-69
2022/12/31 07:56:45;;;;;;;1.50;0.70;;;16.80;84.30;;;;;;5002905;28;20444;-69
2022/12/31 07:59:24;;;;;;;1.33;0.70;;;16.80;83.90;;;;;;5005041;28;20417;-68
2022/12/31 08:02:01;;;;;;;1.00;0.50;;;16.80;84.00;;;;;;5004674;28;20424;-70
2022/12/31 08:04:32;;;;;;;1.00;0.40;;;16.80;83.40;;;;;;5002925;28;20432;-69
2022/12/31 08:07:06;;;;;;;1.20;0.60;;;16.90;83.20;;;;;;5002308;28;20439;-69
2022/12/31 08:09:41;;;;;;;1.50;0.50;;;16.90;83.00;;;;;;5003530;28;20432;-67
2022/12/31 08:12:08;;;;;;;1.15;0.60;;;16.90;83.50;;;;;;5002680;28;20441;-66
2022/12/31 08:14:41;;;;;;;2.30;0.60;;;16.90;83.30;;;;;;5004005;28;20489;-68
2022/12/31 08:17:13;;;;;;;1.20;0.60;;;16.90;83.80;;;;;;5001976;28;20459;-71
2022/12/31 08:19:40;;;;;;;1.77;1.08;;;16.80;83.20;;;;;;5003387;28;20431;-68
2022/12/31 08:22:17;;;;;;;1.15;0.60;;;16.90;83.30;;;;;;5002584;28;20886;-67
2022/12/31 08:24:58;;;;;;;1.95;0.90;;;16.90;82.80;;;;;;5009331;28;20434;-67
2022/12/31 08:27:35;;;;;;;1.38;0.60;;;16.90;82.50;;;;;;4991722;28;20931;-70
2022/12/31 08:30:07;;;;;;;0.95;0.50;;;16.90;82.50;;;;;;5004456;28;20435;-69
2022/12/31 08:32:41;;;;;;;2.35;0.90;;;16.90;82.90;;;;;;5012236;28;20529;-68
2022/12/31 08:35:20;;;;;;;2.15;0.70;;;16.90;82.20;;;;;;5003519;28;20452;-70
2022/12/31 08:37:55;;;;;;;1.33;0.70;;;16.90;82.30;;;;;;5000778;28;21251;-69
2022/12/31 08:40:28;;;;;;;1.70;0.80;;;17.00;81.40;;;;;;4995641;28;20435;-70
2022/12/31 08:43:14;;;;;;;1.10;0.50;;;17.00;81.30;;;;;;5002075;28;20501;-67
2022/12/31 08:45:46;;;;;;;1.00;0.60;;;17.10;80.50;;;;;;5003624;28;20431;-67
2022/12/31 08:48:23;;;;;;;1.30;0.70;;;17.10;80.80;;;;;;4999661;28;20525;-67
2022/12/31 08:50:50;;;;;;;1.95;0.60;;;17.20;80.50;;;;;;5003068;28;20460;-67
2022/12/31 08:53:17;;;;;;;2.38;0.70;;;17.10;80.20;;;;;;5001719;28;20413;-68
2022/12/31 08:55:46;;;;;;;1.27;0.60;;;17.20;80.50;;;;;;5009197;28;21041;-66
2022/12/31 08:58:25;;;;;;;2.50;0.80;;;17.10;80.20;;;;;;5002666;28;20879;-68
2022/12/31 09:00:56;;;;;;;2.00;1.00;;;17.20;80.80;;;;;;4989529;28;20495;-68
2022/12/31 09:03:33;;;;;;;1.60;0.80;;;17.20;81.00;;;;;;4999702;28;20445;-69
2022/12/31 09:06:07;;;;;;;1.60;0.70;;;17.20;80.20;;;;;;5001063;28;22675;-66
2022/12/31 09:08:44;;;;;;;1.65;0.70;;;17.20;80.20;;;;;;5001693;28;20447;-67
2022/12/31 09:11:15;;;;;;;1.40;0.50;;;17.30;80.20;;;;;;5000006;28;20437;-69
2022/12/31 09:14:00;;;;;;;1.58;0.80;;;17.30;80.30;;;;;;5002299;28;20431;-67
2022/12/31 09:16:35;;;;;;;1.95;0.82;;;17.30;80.30;;;;;;5016685;28;20450;-68
2022/12/31 09:19:03;;;;;;;3.17;0.98;;;17.30;80.00;;;;;;5002796;28;20431;-69
2022/12/31 09:21:31;;;;;;;2.53;0.73;;;17.30;80.50;;;;;;5001321;28;20783;-69
2022/12/31 09:23:58;;;;;;;2.38;1.00;;;17.30;80.30;;;;;;5002633;28;20436;-69
2022/12/31 09:26:40;;;;;;;1.58;0.88;;;17.30;80.60;;;;;;5014243;28;20780;-69
2022/12/31 09:29:15;;;;;;;2.28;0.90;;;17.30;80.00;;;;;;5002760;28;20476;-67
2022/12/31 09:31:49;;;;;;;2.85;0.80;;;17.40;79.30;;;;;;5014819;28;20424;-67
2022/12/31 09:34:26;;;;;;;1.40;0.90;;;17.40;80.60;;;;;;5000867;28;20425;-67
2022/12/31 09:36:59;;;;;;;2.60;0.80;;;17.50;78.90;;;;;;5004963;28;20436;-68
2022/12/31 09:39:37;;;;;;;3.08;0.90;;;17.50;78.20;;;;;;5004050;28;20461;-69
2022/12/31 09:42:28;;;;;;;2.35;0.80;;;17.60;77.70;;;;;;5002298;28;20433;-70
2022/12/31 09:45:25;;;;;;;1.33;0.90;;;17.60;78.40;;;;;;5008593;28;20427;-69
2022/12/31 09:48:34;;;;;;;1.50;0.90;;;17.60;78.00;;;;;;4973953;28;20856;-69
2022/12/31 09:51:20;;;;;;;2.00;0.90;;;17.60;78.10;;;;;;4999596;28;20428;-69
2022/12/31 09:54:09;;;;;;;1.80;0.90;;;17.60;78.20;;;;;;5005273;28;20424;-69
2022/12/31 09:56:40;;;;;;;2.40;0.70;;;17.70;77.70;;;;;;4999576;28;20467;-70
2022/12/31 09:59:13;;;;;;;2.08;0.80;;;17.60;77.00;;;;;;5005650;28;21849;-69
2022/12/31 10:01:50;;;;;;;1.90;0.68;;;17.70;77.50;;;;;;5003368;28;20440;-70
2022/12/31 10:04:46;;;;;;;1.20;0.60;;;17.70;76.70;;;;;;5001731;28;20512;-68
2022/12/31 10:07:31;;;;;;;1.70;0.73;;;17.70;76.40;;;;;;5003417;28;20428;-68
2022/12/31 10:10:06;;;;;;;1.40;0.80;;;17.70;76.20;;;;;;5006844;28;20735;-68
2022/12/31 10:13:01;;;;;;;2.40;0.85;;;17.80;76.60;;;;;;5012055;28;20456;-69
2022/12/31 10:15:46;;;;;;;2.70;0.80;;;17.80;75.60;;;;;;5004516;28;20430;-68
2022/12/31 10:18:28;;;;;;;1.67;1.00;;;17.90;75.50;;;;;;5006909;28;20891;-69
2022/12/31 10:21:04;;;;;;;1.15;0.65;;;17.90;74.90;;;;;;5015276;28;20910;-68
2022/12/31 10:23:52;;;;;;;2.40;0.80;;;17.90;75.00;;;;;;5005364;28;20431;-68
2022/12/31 10:26:27;;;;;;;2.47;0.80;;;17.90;75.40;;;;;;5018855;28;20620;-68
2022/12/31 10:28:58;;;;;;;2.60;0.80;;;17.90;74.70;;;;;;5012106;28;20442;-68
2022/12/31 10:31:50;;;;;;;2.20;1.02;;;18.00;75.20;;;;;;5004941;28;20883;-70
2022/12/31 10:34:25;;;;;;;1.37;0.73;;;18.10;73.90;;;;;;5017692;28;20506;-69
2022/12/31 10:36:55;;;;;;;1.30;0.73;;;18.20;73.60;;;;;;4992608;28;20424;-69
2022/12/31 10:39:46;;;;;;;2.00;1.00;;;18.20;73.50;;;;;;5020124;28;20430;-68
2022/12/31 10:42:59;;;;;;;1.10;0.60;;;18.20;73.50;;;;;;5010274;28;20887;-70
2022/12/31 10:45:57;;;;;;;1.10;0.80;;;18.20;73.60;;;;;;4958679;28;20459;-70
2022/12/31 10:48:39;;;;;;;1.23;0.70;;;18.20;74.10;;;;;;5005937;28;20436;-70
2022/12/31 10:52:01;;;;;;;2.63;0.80;;;18.10;74.30;;;;;;5005026;28;20432;-70
2022/12/31 10:55:12;;;;;;;1.20;0.70;;;18.10;74.00;;;;;;4992083;28;20424;-69
2022/12/31 10:58:15;;;;;;;2.00;0.90;;;18.00;74.40;;;;;;5002952;28;20429;-68
2022/12/31 11:00:51;;;;;;;2.00;0.80;;;18.00;74.50;;;;;;5002205;28;20713;-70
2022/12/31 11:04:04;;;;;;;1.50;0.90;;;18.00;74.30;;;;;;5003038;28;20915;-70
2022/12/31 11:06:59;;;;;;;1.55;0.80;;;18.00;74.80;;;;;;4994794;28;20431;-70
2022/12/31 11:10:04;;;;;;;1.30;0.60;;;18.00;75.00;;;;;;4998501;28;20870;-68
2022/12/31 11:12:56;;;;;;;3.87;1.20;;;18.00;73.90;;;;;;4991573;28;20448;-68
2022/12/31 11:15:41;;;;;;;1.42;0.70;;;18.10;73.50;;;;;;5003688;28;21097;-68
2022/12/31 11:18:17;;;;;;;2.30;0.90;;;18.10;73.40;;;;;;5017662;28;20777;-68
2022/12/31 11:20:59;;;;;;;1.88;0.70;;;18.10;72.70;;;;;;5002710;28;20440;-68
2022/12/31 11:23:36;;;;;;;1.95;0.88;;;18.10;72.90;;;;;;5001326;28;20469;-69
2022/12/31 11:26:14;;;;;;;2.53;0.90;;;18.20;72.60;;;;;;5003671;28;20450;-69
2022/12/31 11:28:55;;;;;;;2.60;0.90;;;18.30;71.20;;;;;;5000593;28;20412;-68
2022/12/31 11:31:41;;;;;;;2.17;0.90;;;18.40;71.40;;;;;;5000717;28;21066;-70
2022/12/31 11:34:23;;;;;;;1.40;0.80;;;18.50;69.90;;;;;;5003622;28;20424;-69
2022/12/31 11:37:09;;;;;;;1.80;0.82;;;18.60;69.70;;;;;;4994052;28;20432;-68
2022/12/31 11:39:49;;;;;;;2.67;0.80;;;18.60;69.90;;;;;;5009073;28;20415;-69
2022/12/31 11:42:21;;;;;;;1.60;0.90;;;18.60;68.80;;;;;;5008656;28;20429;-68
2022/12/31 11:44:55;;;;;;;2.47;0.90;;;18.60;69.50;;;;;;5007805;28;20578;-69
2022/12/31 11:47:47;;;;;;;2.30;1.00;;;18.50;70.10;;;;;;5011130;28;20486;-68
2022/12/31 11:50:30;;;;;;;1.70;0.90;;;18.40;70.40;;;;;;5023011;28;20789;-68
2022/12/31 11:53:23;;;;;;;1.70;1.05;;;18.30;70.80;;;;;;5009306;28;20884;-69
2022/12/31 11:56:01;;;;;;;2.50;0.90;;;18.20;71.70;;;;;;5004117;28;20420;-69
2022/12/31 11:58:30;;;;;;;2.30;1.30;;;18.10;72.00;;;;;;5000338;28;20523;-69
2022/12/31 12:00:59;;;;;;;2.80;0.98;;;18.10;72.70;;;;;;5003467;28;20420;-68
2022/12/31 12:03:27;;;;;;;1.60;1.00;;;18.00;73.30;;;;;;5002775;28;20432;-69
2022/12/31 12:05:56;;;;;;;1.67;0.93;;;18.00;73.50;;;;;;5004026;28;20936;-68
2022/12/31 12:08:23;;;;;;;2.30;1.00;;;18.00;73.00;;;;;;5011667;28;20449;-70
2022/12/31 12:10:53;;;;;;;2.40;1.10;;;18.00;72.80;;;;;;5002555;28;20443;-67
2022/12/31 12:13:23;;;;;;;3.28;1.20;;;18.00;73.70;;;;;;4999878;28;20455;-68
2022/12/31 12:15:55;;;;;;;2.25;0.95;;;18.00;74.60;;;;;;5004114;28;20413;-70
2022/12/31 12:18:28;;;;;;;2.08;1.08;;;17.90;73.70;;;;;;5002059;28;20531;-67
2022/12/31 12:21:03;;;;;;;1.77;1.00;;;17.90;73.50;;;;;;5000077;28;20442;-68
2022/12/31 12:23:31;;;;;;;2.60;1.10;;;17.90;73.80;;;;;;5000731;28;20465;-67
2022/12/31 12:25:58;;;;;;;2.33;1.20;;;17.90;73.70;;;;;;5003211;28;20519;-67
2022/12/31 12:28:28;;;;;;;3.42;1.25;;;18.00;74.00;;;;;;5002487;28;20445;-68
2022/12/31 12:30:59;;;;;;;3.33;1.60;;;18.10;73.40;;;;;;5001108;28;20676;-69
2022/12/31 12:33:27;;;;;;;3.00;1.27;;;18.20;72.60;;;;;;5003334;28;20432;-68
2022/12/31 12:35:54;;;;;;;1.77;1.00;;;18.40;71.70;;;;;;5003387;28;20511;-68
2022/12/31 12:38:22;;;;;;;3.38;1.20;;;18.50;70.90;;;;;;5009993;28;21286;-69
2022/12/31 12:40:58;;;;;;;2.45;0.82;;;18.60;69.90;;;;;;5008017;28;20440;-69
2022/12/31 12:43:27;;;;;;;2.45;1.17;;;18.60;70.30;;;;;;5001976;28;20887;-68
2022/12/31 12:45:59;;;;;;;2.33;1.10;;;18.50;70.80;;;;;;4999714;28;20432;-68
2022/12/31 12:48:32;;;;;;;2.50;1.27;;;18.30;71.30;;;;;;5003181;28;20461;-68
2022/12/31 12:51:00;;;;;;;2.00;1.10;;;18.30;71.80;;;;;;5006724;28;20529;-68
2022/12/31 12:53:43;;;;;;;2.42;1.10;;;18.10;78.20;;;;;;5002047;28;20435;-67
2022/12/31 12:56:22;;;;;;;2.70;1.20;;;17.70;80.30;;;;;;4991678;28;20487;-71
2022/12/31 12:58:59;;;;;;;2.65;1.20;;;17.30;80.00;;;;;;5003766;28;21115;-70
2022/12/31 13:01:37;;;;;;;1.40;1.10;;;17.40;80.10;;;;;;5001616;28;20432;-69
2022/12/31 13:04:38;;;;;;;2.80;1.10;;;17.70;78.60;;;;;;5009456;28;20545;-70
2022/12/31 13:07:19;;;;;;;1.73;1.10;;;17.70;77.60;;;;;;4985835;28;21012;-67
2022/12/31 13:10:03;;;;;;;3.35;1.20;;;17.70;76.80;;;;;;5003997;28;20535;-68
2022/12/31 13:12:35;;;;;;;2.05;1.00;;;17.70;77.10;;;;;;4990812;28;20516;-69
2022/12/31 13:15:10;;;;;;;3.30;1.45;;;17.70;75.50;;;;;;5003557;28;20894;-66
2022/12/31 13:17:52;;;;;;;2.50;1.30;;;17.70;75.20;;;;;;5003199;28;20455;-67
2022/12/31 13:20:27;;;;;;;3.30;1.38;;;17.70;75.40;;;;;;4999176;28;20439;-68
2022/12/31 13:23:01;;;;;;;2.55;1.40;;;17.80;75.80;;;;;;5004903;28;20459;-70
2022/12/31 13:25:35;;;;;;;2.10;1.17;;;17.70;76.90;;;;;;5003455;28;20451;-68
2022/12/31 13:28:05;;;;;;;3.30;1.40;;;17.60;77.90;;;;;;5001941;28;20436;-69
2022/12/31 13:30:36;;;;;;;2.47;1.00;;;17.50;83.30;;;;;;5007194;28;20432;-69
2022/12/31 13:33:14;;;;;;;2.00;1.25;;;17.00;87.40;;;;;;5001821;28;21168;-69